sensor_id;sensor_type;location;lat;lon;timestamp;temperature;humidity
22795;DHT22;11564;50.920;11.612;2022-08-19T00:00:24;18.70;99.90
22795;DHT22;11564;50.920;11.612;2022-08-19T00:02:50;18.70;99.90
22795;DHT22;11564;50.920;11.612;2022-08-19T00:05:16;18.70;99.90
22795;DHT22;11564;50.920;11.612;2022-08-19T00:07:42;18.70;99.90
22795;DHT22;11564;50.920;11.612;2022-08-19T00:10:10;18.70;99.90
22795;DHT22;11564;50.920;11.612;2022-08-19T00:12:37;18.70;99.90
22795;DHT22;11564;50.920;11.612;2022-08-19T00:15:06;18.70;99.90
22795;DHT22;11564;50.920;11.612;2022-08-19T00:17:31;18.70;99.90
22795;DHT22;11564;50.920;11.612;2022-08-19T00:19:57;18.70;99.90
22795;DHT22;11564;50.920;11.612;2022-08-19T00:22:23;18.80;99.90
22795;DHT22;11564;50.920;11.612;2022-08-19T00:24:48;18.70;99.90
22795;DHT22;11564;50.920;11.612;2022-08-19T00:27:14;18.70;99.90
22795;DHT22;11564;50.920;11.612;2022-08-19T00:29:40;18.70;99.90
22795;DHT22;11564;50.920;11.612;2022-08-19T00:32:06;18.70;99.90
22795;DHT22;11564;50.920;11.612;2022-08-19T00:34:32;18.70;99.90
22795;DHT22;11564;50.920;11.612;2022-08-19T00:36:58;18.70;99.90
22795;DHT22;11564;50.920;11.612;2022-08-19T00:39:25;18.60;99.90
22795;DHT22;11564;50.920;11.612;2022-08-19T00:41:51;18.60;99.90
22795;DHT22;11564;50.920;11.612;2022-08-19T00:44:21;18.60;99.90
22795;DHT22;11564;50.920;11.612;2022-08-19T00:46:49;18.70;99.90
22795;DHT22;11564;50.920;11.612;2022-08-19T00:51:57;18.70;99.90
22795;DHT22;11564;50.920;11.612;2022-08-19T00:54:24;18.70;99.90
22795;DHT22;11564;50.920;11.612;2022-08-19T00:56:50;18.70;99.90
22795;DHT22;11564;50.920;11.612;2022-08-19T00:59:18;18.70;99.90
22795;DHT22;11564;50.920;11.612;2022-08-19T01:01:44;18.70;99.90
22795;DHT22;11564;50.920;11.612;2022-08-19T01:04:11;18.70;99.90
22795;DHT22;11564;50.920;11.612;2022-08-19T01:06:38;18.60;99.90
22795;DHT22;11564;50.920;11.612;2022-08-19T01:09:06;18.60;99.90
22795;DHT22;11564;50.920;11.612;2022-08-19T01:11:35;18.60;99.90
22795;DHT22;11564;50.920;11.612;2022-08-19T01:14:02;18.70;99.90
22795;DHT22;11564;50.920;11.612;2022-08-19T01:16:28;18.60;99.90
22795;DHT22;11564;50.920;11.612;2022-08-19T01:18:55;18.60;99.90
22795;DHT22;11564;50.920;11.612;2022-08-19T01:21:27;18.60;99.90
22795;DHT22;11564;50.920;11.612;2022-08-19T01:23:55;18.50;99.90
22795;DHT22;11564;50.920;11.612;2022-08-19T01:26:24;18.60;99.90
22795;DHT22;11564;50.920;11.612;2022-08-19T01:28:53;18.60;99.90
22795;DHT22;11564;50.920;11.612;2022-08-19T01:31:22;18.60;99.90
22795;DHT22;11564;50.920;11.612;2022-08-19T01:33:51;18.50;99.90
22795;DHT22;11564;50.920;11.612;2022-08-19T01:36:38;18.50;99.90
22795;DHT22;11564;50.920;11.612;2022-08-19T01:39:07;18.40;99.90
22795;DHT22;11564;50.920;11.612;2022-08-19T01:41:33;18.30;99.90
22795;DHT22;11564;50.920;11.612;2022-08-19T01:44:00;18.30;99.90
22795;DHT22;11564;50.920;11.612;2022-08-19T01:46:29;18.30;99.90
22795;DHT22;11564;50.920;11.612;2022-08-19T01:48:55;18.30;99.90
22795;DHT22;11564;50.920;11.612;2022-08-19T01:51:21;18.30;99.90
22795;DHT22;11564;50.920;11.612;2022-08-19T01:53:49;18.30;99.90
22795;DHT22;11564;50.920;11.612;2022-08-19T01:56:15;18.30;99.90
22795;DHT22;11564;50.920;11.612;2022-08-19T01:58:46;18.30;99.90
22795;DHT22;11564;50.920;11.612;2022-08-19T02:01:13;18.30;99.90
22795;DHT22;11564;50.920;11.612;2022-08-19T02:03:39;18.30;99.90
22795;DHT22;11564;50.920;11.612;2022-08-19T02:06:05;18.30;99.90
22795;DHT22;11564;50.920;11.612;2022-08-19T02:08:33;18.30;99.90
22795;DHT22;11564;50.920;11.612;2022-08-19T02:11:00;18.30;99.90
22795;DHT22;11564;50.920;11.612;2022-08-19T02:13:26;18.30;99.90
22795;DHT22;11564;50.920;11.612;2022-08-19T02:15:52;18.30;99.90
22795;DHT22;11564;50.920;11.612;2022-08-19T02:18:17;18.30;99.90
22795;DHT22;11564;50.920;11.612;2022-08-19T02:20:44;18.30;99.90
22795;DHT22;11564;50.920;11.612;2022-08-19T02:23:13;18.30;99.90
22795;DHT22;11564;50.920;11.612;2022-08-19T02:25:39;18.20;99.90
22795;DHT22;11564;50.920;11.612;2022-08-19T02:28:05;18.30;99.90
22795;DHT22;11564;50.920;11.612;2022-08-19T02:30:31;18.30;99.90
22795;DHT22;11564;50.920;11.612;2022-08-19T02:32:57;18.20;99.90
22795;DHT22;11564;50.920;11.612;2022-08-19T02:35:23;18.20;99.90
22795;DHT22;11564;50.920;11.612;2022-08-19T02:37:49;18.20;99.90
22795;DHT22;11564;50.920;11.612;2022-08-19T02:40:33;18.20;99.90
22795;DHT22;11564;50.920;11.612;2022-08-19T02:43:00;18.30;99.90
22795;DHT22;11564;50.920;11.612;2022-08-19T02:45:26;18.30;99.90
22795;DHT22;11564;50.920;11.612;2022-08-19T02:47:52;18.30;99.90
22795;DHT22;11564;50.920;11.612;2022-08-19T02:50:18;18.30;99.90
22795;DHT22;11564;50.920;11.612;2022-08-19T02:52:43;18.40;99.90
22795;DHT22;11564;50.920;11.612;2022-08-19T02:55:10;18.30;99.90
22795;DHT22;11564;50.920;11.612;2022-08-19T02:57:36;18.30;99.90
22795;DHT22;11564;50.920;11.612;2022-08-19T03:00:05;18.40;99.90
22795;DHT22;11564;50.920;11.612;2022-08-19T03:02:30;18.30;99.90
22795;DHT22;11564;50.920;11.612;2022-08-19T03:04:56;18.40;99.90
22795;DHT22;11564;50.920;11.612;2022-08-19T03:07:22;18.40;99.90
22795;DHT22;11564;50.920;11.612;2022-08-19T03:09:47;18.40;99.90
22795;DHT22;11564;50.920;11.612;2022-08-19T03:12:13;18.40;99.90
22795;DHT22;11564;50.920;11.612;2022-08-19T03:14:39;18.40;99.90
22795;DHT22;11564;50.920;11.612;2022-08-19T03:17:05;18.40;99.90
22795;DHT22;11564;50.920;11.612;2022-08-19T03:19:31;18.40;99.90
22795;DHT22;11564;50.920;11.612;2022-08-19T03:21:57;18.40;99.90
22795;DHT22;11564;50.920;11.612;2022-08-19T03:24:23;18.40;99.90
22795;DHT22;11564;50.920;11.612;2022-08-19T03:26:52;18.40;99.90
22795;DHT22;11564;50.920;11.612;2022-08-19T03:29:22;18.50;99.90
22795;DHT22;11564;50.920;11.612;2022-08-19T03:31:47;18.50;99.90
22795;DHT22;11564;50.920;11.612;2022-08-19T03:34:16;18.40;99.90
22795;DHT22;11564;50.920;11.612;2022-08-19T03:36:42;18.50;99.90
22795;DHT22;11564;50.920;11.612;2022-08-19T03:39:10;18.50;99.90
22795;DHT22;11564;50.920;11.612;2022-08-19T03:41:37;18.50;99.90
22795;DHT22;11564;50.920;11.612;2022-08-19T03:44:04;18.50;99.90
22795;DHT22;11564;50.920;11.612;2022-08-19T03:46:32;18.50;99.90
22795;DHT22;11564;50.920;11.612;2022-08-19T03:49:00;18.50;99.90
22795;DHT22;11564;50.920;11.612;2022-08-19T03:51:31;18.60;99.90
22795;DHT22;11564;50.920;11.612;2022-08-19T03:53:59;18.50;99.90
22795;DHT22;11564;50.920;11.612;2022-08-19T03:56:26;18.50;99.90
22795;DHT22;11564;50.920;11.612;2022-08-19T03:58:54;18.50;99.90
22795;DHT22;11564;50.920;11.612;2022-08-19T04:01:21;18.50;99.90
22795;DHT22;11564;50.920;11.612;2022-08-19T04:03:48;18.60;99.90
22795;DHT22;11564;50.920;11.612;2022-08-19T04:08:41;18.50;99.90
22795;DHT22;11564;50.920;11.612;2022-08-19T04:11:29;18.50;99.90
22795;DHT22;11564;50.920;11.612;2022-08-19T04:13:55;18.50;99.90
22795;DHT22;11564;50.920;11.612;2022-08-19T04:16:23;18.50;99.90
22795;DHT22;11564;50.920;11.612;2022-08-19T04:18:49;18.50;99.90
22795;DHT22;11564;50.920;11.612;2022-08-19T04:21:18;18.50;99.90
22795;DHT22;11564;50.920;11.612;2022-08-19T04:23:44;18.50;99.90
22795;DHT22;11564;50.920;11.612;2022-08-19T04:26:15;18.50;99.90
22795;DHT22;11564;50.920;11.612;2022-08-19T04:28:41;18.50;99.90
22795;DHT22;11564;50.920;11.612;2022-08-19T04:31:13;18.60;99.90
22795;DHT22;11564;50.920;11.612;2022-08-19T04:33:39;18.60;99.90
22795;DHT22;11564;50.920;11.612;2022-08-19T04:36:05;18.60;99.90
22795;DHT22;11564;50.920;11.612;2022-08-19T04:38:31;18.60;99.90
22795;DHT22;11564;50.920;11.612;2022-08-19T04:40:56;18.60;99.90
22795;DHT22;11564;50.920;11.612;2022-08-19T04:43:40;18.60;99.90
22795;DHT22;11564;50.920;11.612;2022-08-19T04:46:11;18.60;99.90
22795;DHT22;11564;50.920;11.612;2022-08-19T04:48:38;18.60;99.90
22795;DHT22;11564;50.920;11.612;2022-08-19T04:51:07;18.70;99.90
22795;DHT22;11564;50.920;11.612;2022-08-19T04:53:35;18.70;99.90
22795;DHT22;11564;50.920;11.612;2022-08-19T04:56:06;18.70;99.90
22795;DHT22;11564;50.920;11.612;2022-08-19T04:58:33;18.60;99.90
22795;DHT22;11564;50.920;11.612;2022-08-19T05:00:59;18.60;99.90
22795;DHT22;11564;50.920;11.612;2022-08-19T05:03:27;18.70;99.90
22795;DHT22;11564;50.920;11.612;2022-08-19T05:06:06;18.70;99.90
22795;DHT22;11564;50.920;11.612;2022-08-19T05:08:34;18.70;99.90
22795;DHT22;11564;50.920;11.612;2022-08-19T05:11:11;18.70;99.90
22795;DHT22;11564;50.920;11.612;2022-08-19T05:13:36;18.70;99.90
22795;DHT22;11564;50.920;11.612;2022-08-19T05:16:03;18.70;99.90
22795;DHT22;11564;50.920;11.612;2022-08-19T05:18:29;18.80;99.90
22795;DHT22;11564;50.920;11.612;2022-08-19T05:21:15;18.80;99.90
22795;DHT22;11564;50.920;11.612;2022-08-19T05:23:59;18.80;99.90
22795;DHT22;11564;50.920;11.612;2022-08-19T05:26:25;18.80;99.90
22795;DHT22;11564;50.920;11.612;2022-08-19T05:28:52;18.70;99.90
22795;DHT22;11564;50.920;11.612;2022-08-19T05:31:18;18.70;99.90
22795;DHT22;11564;50.920;11.612;2022-08-19T05:33:46;18.80;99.90
22795;DHT22;11564;50.920;11.612;2022-08-19T05:36:11;18.70;99.90
22795;DHT22;11564;50.920;11.612;2022-08-19T05:38:38;18.80;99.90
22795;DHT22;11564;50.920;11.612;2022-08-19T05:41:08;18.80;99.90
22795;DHT22;11564;50.920;11.612;2022-08-19T05:43:34;18.80;99.90
22795;DHT22;11564;50.920;11.612;2022-08-19T05:46:00;18.80;99.90
22795;DHT22;11564;50.920;11.612;2022-08-19T05:48:26;18.90;99.90
22795;DHT22;11564;50.920;11.612;2022-08-19T05:50:52;18.90;99.90
22795;DHT22;11564;50.920;11.612;2022-08-19T05:53:18;18.90;99.90
22795;DHT22;11564;50.920;11.612;2022-08-19T05:55:43;18.90;99.90
22795;DHT22;11564;50.920;11.612;2022-08-19T05:58:09;19.00;99.90
22795;DHT22;11564;50.920;11.612;2022-08-19T06:00:37;19.00;99.90
22795;DHT22;11564;50.920;11.612;2022-08-19T06:03:03;18.90;99.90
22795;DHT22;11564;50.920;11.612;2022-08-19T06:05:30;19.00;99.90
22795;DHT22;11564;50.920;11.612;2022-08-19T06:07:55;18.90;99.90
22795;DHT22;11564;50.920;11.612;2022-08-19T06:10:21;19.00;99.90
22795;DHT22;11564;50.920;11.612;2022-08-19T06:12:48;19.00;99.90
22795;DHT22;11564;50.920;11.612;2022-08-19T06:15:14;19.00;99.90
22795;DHT22;11564;50.920;11.612;2022-08-19T06:17:41;19.00;99.90
22795;DHT22;11564;50.920;11.612;2022-08-19T06:20:10;19.00;99.90
22795;DHT22;11564;50.920;11.612;2022-08-19T06:22:47;19.10;99.90
22795;DHT22;11564;50.920;11.612;2022-08-19T06:25:15;19.10;99.90
22795;DHT22;11564;50.920;11.612;2022-08-19T06:27:42;19.10;99.90
22795;DHT22;11564;50.920;11.612;2022-08-19T06:30:08;19.10;99.90
22795;DHT22;11564;50.920;11.612;2022-08-19T06:32:35;19.10;99.90
22795;DHT22;11564;50.920;11.612;2022-08-19T06:35:01;19.20;99.90
22795;DHT22;11564;50.920;11.612;2022-08-19T06:37:26;19.20;99.90
22795;DHT22;11564;50.920;11.612;2022-08-19T06:39:52;19.20;99.90
22795;DHT22;11564;50.920;11.612;2022-08-19T06:42:17;19.20;99.90
22795;DHT22;11564;50.920;11.612;2022-08-19T06:44:46;19.20;99.90
22795;DHT22;11564;50.920;11.612;2022-08-19T06:47:16;19.20;99.90
22795;DHT22;11564;50.920;11.612;2022-08-19T06:49:42;19.10;99.90
22795;DHT22;11564;50.920;11.612;2022-08-19T06:52:08;19.10;99.90
22795;DHT22;11564;50.920;11.612;2022-08-19T06:54:37;19.10;99.90
22795;DHT22;11564;50.920;11.612;2022-08-19T06:57:02;19.10;99.90
22795;DHT22;11564;50.920;11.612;2022-08-19T06:59:29;19.10;99.90
22795;DHT22;11564;50.920;11.612;2022-08-19T07:01:58;19.10;99.90
22795;DHT22;11564;50.920;11.612;2022-08-19T07:04:27;19.10;99.90
22795;DHT22;11564;50.920;11.612;2022-08-19T07:07:03;19.10;99.90
22795;DHT22;11564;50.920;11.612;2022-08-19T07:09:31;19.10;99.90
22795;DHT22;11564;50.920;11.612;2022-08-19T07:11:57;19.10;99.90
22795;DHT22;11564;50.920;11.612;2022-08-19T07:14:25;19.10;99.90
22795;DHT22;11564;50.920;11.612;2022-08-19T07:16:53;19.10;99.90
22795;DHT22;11564;50.920;11.612;2022-08-19T07:19:21;19.10;99.90
22795;DHT22;11564;50.920;11.612;2022-08-19T07:21:48;19.20;99.90
22795;DHT22;11564;50.920;11.612;2022-08-19T07:24:17;19.20;99.90
22795;DHT22;11564;50.920;11.612;2022-08-19T07:26:43;19.20;99.90
22795;DHT22;11564;50.920;11.612;2022-08-19T07:29:09;19.20;99.90
22795;DHT22;11564;50.920;11.612;2022-08-19T07:31:35;19.10;99.90
22795;DHT22;11564;50.920;11.612;2022-08-19T07:34:04;19.10;99.90
22795;DHT22;11564;50.920;11.612;2022-08-19T07:36:34;19.10;99.90
22795;DHT22;11564;50.920;11.612;2022-08-19T07:39:07;19.10;99.90
22795;DHT22;11564;50.920;11.612;2022-08-19T07:41:34;19.20;99.90
22795;DHT22;11564;50.920;11.612;2022-08-19T07:44:00;19.20;99.90
22795;DHT22;11564;50.920;11.612;2022-08-19T07:46:38;19.20;99.90
22795;DHT22;11564;50.920;11.612;2022-08-19T07:49:06;19.20;99.90
22795;DHT22;11564;50.920;11.612;2022-08-19T07:51:32;19.20;99.90
22795;DHT22;11564;50.920;11.612;2022-08-19T07:53:58;19.30;99.90
22795;DHT22;11564;50.920;11.612;2022-08-19T07:56:24;19.30;99.90
22795;DHT22;11564;50.920;11.612;2022-08-19T07:58:51;19.40;99.90
22795;DHT22;11564;50.920;11.612;2022-08-19T08:01:21;19.40;99.90
22795;DHT22;11564;50.920;11.612;2022-08-19T08:03:48;19.50;99.90
22795;DHT22;11564;50.920;11.612;2022-08-19T08:06:33;19.60;99.90
22795;DHT22;11564;50.920;11.612;2022-08-19T08:09:32;19.60;99.90
22795;DHT22;11564;50.920;11.612;2022-08-19T08:12:13;19.60;99.90
22795;DHT22;11564;50.920;11.612;2022-08-19T08:14:43;19.60;99.90
22795;DHT22;11564;50.920;11.612;2022-08-19T08:17:10;19.50;99.90
22795;DHT22;11564;50.920;11.612;2022-08-19T08:19:36;19.60;99.90
22795;DHT22;11564;50.920;11.612;2022-08-19T08:22:03;19.60;99.90
22795;DHT22;11564;50.920;11.612;2022-08-19T08:24:31;19.50;99.90
22795;DHT22;11564;50.920;11.612;2022-08-19T08:26:58;19.40;99.90
22795;DHT22;11564;50.920;11.612;2022-08-19T08:29:26;19.30;99.90
22795;DHT22;11564;50.920;11.612;2022-08-19T08:31:52;19.30;99.90
22795;DHT22;11564;50.920;11.612;2022-08-19T08:34:19;19.20;99.90
22795;DHT22;11564;50.920;11.612;2022-08-19T08:36:46;19.20;99.90
22795;DHT22;11564;50.920;11.612;2022-08-19T08:39:17;19.20;99.90
22795;DHT22;11564;50.920;11.612;2022-08-19T08:42:37;19.10;99.90
22795;DHT22;11564;50.920;11.612;2022-08-19T08:44:48;19.10;99.90
22795;DHT22;11564;50.920;11.612;2022-08-19T08:47:18;19.10;99.90
22795;DHT22;11564;50.920;11.612;2022-08-19T08:50:03;19.10;99.90
22795;DHT22;11564;50.920;11.612;2022-08-19T08:52:33;19.10;99.90
22795;DHT22;11564;50.920;11.612;2022-08-19T08:55:07;19.20;99.90
22795;DHT22;11564;50.920;11.612;2022-08-19T09:00:14;19.20;99.90
22795;DHT22;11564;50.920;11.612;2022-08-19T09:02:40;19.20;99.90
22795;DHT22;11564;50.920;11.612;2022-08-19T09:05:06;19.20;99.90
22795;DHT22;11564;50.920;11.612;2022-08-19T09:08:01;19.30;99.90
22795;DHT22;11564;50.920;11.612;2022-08-19T09:11:10;19.30;99.90
22795;DHT22;11564;50.920;11.612;2022-08-19T09:14:07;19.30;99.90
22795;DHT22;11564;50.920;11.612;2022-08-19T09:16:34;19.30;99.90
22795;DHT22;11564;50.920;11.612;2022-08-19T09:19:05;19.20;99.90
22795;DHT22;11564;50.920;11.612;2022-08-19T09:21:32;19.30;99.90
22795;DHT22;11564;50.920;11.612;2022-08-19T09:23:57;19.20;99.90
22795;DHT22;11564;50.920;11.612;2022-08-19T09:26:24;19.10;99.90
22795;DHT22;11564;50.920;11.612;2022-08-19T09:28:52;19.10;99.90
22795;DHT22;11564;50.920;11.612;2022-08-19T09:31:23;18.90;99.90
22795;DHT22;11564;50.920;11.612;2022-08-19T09:33:49;18.90;99.90
22795;DHT22;11564;50.920;11.612;2022-08-19T09:36:18;18.70;99.90
22795;DHT22;11564;50.920;11.612;2022-08-19T09:38:44;18.60;99.90
22795;DHT22;11564;50.920;11.612;2022-08-19T09:41:13;18.70;99.90
22795;DHT22;11564;50.920;11.612;2022-08-19T09:43:40;18.70;99.90
22795;DHT22;11564;50.920;11.612;2022-08-19T09:46:07;18.80;99.90
22795;DHT22;11564;50.920;11.612;2022-08-19T09:48:35;19.00;99.90
22795;DHT22;11564;50.920;11.612;2022-08-19T09:51:05;19.10;99.90
22795;DHT22;11564;50.920;11.612;2022-08-19T09:53:31;19.10;99.90
22795;DHT22;11564;50.920;11.612;2022-08-19T09:55:57;19.20;99.90
22795;DHT22;11564;50.920;11.612;2022-08-19T09:58:23;19.00;99.90
22795;DHT22;11564;50.920;11.612;2022-08-19T10:00:56;19.00;99.90
22795;DHT22;11564;50.920;11.612;2022-08-19T10:03:22;19.00;99.90
22795;DHT22;11564;50.920;11.612;2022-08-19T10:05:48;19.00;99.90
22795;DHT22;11564;50.920;11.612;2022-08-19T10:08:29;18.90;99.90
22795;DHT22;11564;50.920;11.612;2022-08-19T10:10:55;18.90;99.90
22795;DHT22;11564;50.920;11.612;2022-08-19T10:13:24;18.80;99.90
22795;DHT22;11564;50.920;11.612;2022-08-19T10:15:56;18.80;99.90
22795;DHT22;11564;50.920;11.612;2022-08-19T10:18:23;18.80;99.90
22795;DHT22;11564;50.920;11.612;2022-08-19T10:20:50;18.90;99.90
22795;DHT22;11564;50.920;11.612;2022-08-19T10:23:19;19.10;99.90
22795;DHT22;11564;50.920;11.612;2022-08-19T10:25:45;19.10;99.90
22795;DHT22;11564;50.920;11.612;2022-08-19T10:28:11;19.20;99.90
22795;DHT22;11564;50.920;11.612;2022-08-19T10:30:39;19.30;99.90
22795;DHT22;11564;50.920;11.612;2022-08-19T10:33:05;19.10;99.90
22795;DHT22;11564;50.920;11.612;2022-08-19T10:35:31;19.00;99.90
22795;DHT22;11564;50.920;11.612;2022-08-19T10:37:57;18.90;99.90
22795;DHT22;11564;50.920;11.612;2022-08-19T10:40:25;18.90;99.90
22795;DHT22;11564;50.920;11.612;2022-08-19T10:42:52;18.70;99.90
22795;DHT22;11564;50.920;11.612;2022-08-19T10:45:18;18.70;99.90
22795;DHT22;11564;50.920;11.612;2022-08-19T10:47:43;18.60;99.90
22795;DHT22;11564;50.920;11.612;2022-08-19T10:50:09;18.70;99.90
22795;DHT22;11564;50.920;11.612;2022-08-19T10:52:53;18.60;99.90
22795;DHT22;11564;50.920;11.612;2022-08-19T10:55:21;18.60;99.90
22795;DHT22;11564;50.920;11.612;2022-08-19T10:58:14;18.60;99.90
22795;DHT22;11564;50.920;11.612;2022-08-19T11:00:41;18.60;99.90
22795;DHT22;11564;50.920;11.612;2022-08-19T11:03:08;18.70;99.90
22795;DHT22;11564;50.920;11.612;2022-08-19T11:05:34;18.70;99.90
22795;DHT22;11564;50.920;11.612;2022-08-19T11:07:59;18.80;99.90
22795;DHT22;11564;50.920;11.612;2022-08-19T11:10:25;18.80;99.90
22795;DHT22;11564;50.920;11.612;2022-08-19T11:12:51;18.80;99.90
22795;DHT22;11564;50.920;11.612;2022-08-19T11:15:21;18.80;99.90
22795;DHT22;11564;50.920;11.612;2022-08-19T11:17:46;18.60;99.90
22795;DHT22;11564;50.920;11.612;2022-08-19T11:20:14;18.50;99.90
22795;DHT22;11564;50.920;11.612;2022-08-19T11:22:40;18.70;99.90
22795;DHT22;11564;50.920;11.612;2022-08-19T11:25:07;19.00;99.90
22795;DHT22;11564;50.920;11.612;2022-08-19T11:27:33;19.00;99.90
22795;DHT22;11564;50.920;11.612;2022-08-19T11:29:59;19.10;99.90
22795;DHT22;11564;50.920;11.612;2022-08-19T11:32:26;19.30;99.90
22795;DHT22;11564;50.920;11.612;2022-08-19T11:34:52;19.60;99.90
22795;DHT22;11564;50.920;11.612;2022-08-19T11:37:18;19.70;99.90
22795;DHT22;11564;50.920;11.612;2022-08-19T11:39:43;19.70;99.90
22795;DHT22;11564;50.920;11.612;2022-08-19T11:42:09;20.00;99.90
22795;DHT22;11564;50.920;11.612;2022-08-19T11:44:53;20.20;99.90
22795;DHT22;11564;50.920;11.612;2022-08-19T11:47:20;20.50;99.90
22795;DHT22;11564;50.920;11.612;2022-08-19T11:49:47;20.00;99.90
22795;DHT22;11564;50.920;11.612;2022-08-19T11:52:12;20.10;99.90
22795;DHT22;11564;50.920;11.612;2022-08-19T11:54:38;20.20;99.90
22795;DHT22;11564;50.920;11.612;2022-08-19T11:57:04;20.20;99.90
22795;DHT22;11564;50.920;11.612;2022-08-19T11:59:30;20.50;99.90
22795;DHT22;11564;50.920;11.612;2022-08-19T12:01:56;20.50;99.90
22795;DHT22;11564;50.920;11.612;2022-08-19T12:04:22;20.90;99.90
22795;DHT22;11564;50.920;11.612;2022-08-19T12:06:48;21.40;99.90
22795;DHT22;11564;50.920;11.612;2022-08-19T12:09:15;22.00;99.90
22795;DHT22;11564;50.920;11.612;2022-08-19T12:11:43;22.60;99.90
22795;DHT22;11564;50.920;11.612;2022-08-19T12:14:10;22.60;99.90
22795;DHT22;11564;50.920;11.612;2022-08-19T12:16:37;22.60;99.90
22795;DHT22;11564;50.920;11.612;2022-08-19T12:19:04;22.40;99.90
22795;DHT22;11564;50.920;11.612;2022-08-19T12:21:31;22.80;99.90
22795;DHT22;11564;50.920;11.612;2022-08-19T12:24:00;22.70;99.90
22795;DHT22;11564;50.920;11.612;2022-08-19T12:26:27;22.70;99.90
22795;DHT22;11564;50.920;11.612;2022-08-19T12:28:54;23.30;99.90
22795;DHT22;11564;50.920;11.612;2022-08-19T12:31:20;23.70;99.90
22795;DHT22;11564;50.920;11.612;2022-08-19T12:33:46;23.80;99.90
22795;DHT22;11564;50.920;11.612;2022-08-19T12:36:14;24.00;99.90
22795;DHT22;11564;50.920;11.612;2022-08-19T12:38:41;23.50;99.90
22795;DHT22;11564;50.920;11.612;2022-08-19T12:41:10;23.90;99.90
22795;DHT22;11564;50.920;11.612;2022-08-19T12:43:37;24.30;99.90
22795;DHT22;11564;50.920;11.612;2022-08-19T12:46:04;24.50;99.90
22795;DHT22;11564;50.920;11.612;2022-08-19T12:48:31;24.30;99.90
22795;DHT22;11564;50.920;11.612;2022-08-19T12:50:56;24.30;99.90
22795;DHT22;11564;50.920;11.612;2022-08-19T12:53:22;24.00;99.90
22795;DHT22;11564;50.920;11.612;2022-08-19T12:55:53;24.00;99.90
22795;DHT22;11564;50.920;11.612;2022-08-19T12:58:21;24.00;99.90
22795;DHT22;11564;50.920;11.612;2022-08-19T13:00:47;23.70;99.90
22795;DHT22;11564;50.920;11.612;2022-08-19T13:03:12;23.90;99.90
22795;DHT22;11564;50.920;11.612;2022-08-19T13:05:38;24.00;99.90
22795;DHT22;11564;50.920;11.612;2022-08-19T13:08:04;24.10;99.90
22795;DHT22;11564;50.920;11.612;2022-08-19T13:10:32;24.20;99.90
22795;DHT22;11564;50.920;11.612;2022-08-19T13:13:05;24.50;99.90
22795;DHT22;11564;50.920;11.612;2022-08-19T13:15:37;24.80;99.90
22795;DHT22;11564;50.920;11.612;2022-08-19T13:18:04;24.70;99.90
22795;DHT22;11564;50.920;11.612;2022-08-19T13:20:31;24.60;99.90
22795;DHT22;11564;50.920;11.612;2022-08-19T13:22:56;24.20;99.90
22795;DHT22;11564;50.920;11.612;2022-08-19T13:25:22;24.00;99.90
22795;DHT22;11564;50.920;11.612;2022-08-19T13:27:49;24.00;99.90
22795;DHT22;11564;50.920;11.612;2022-08-19T13:30:16;24.00;99.90
22795;DHT22;11564;50.920;11.612;2022-08-19T13:33:01;23.70;99.90
22795;DHT22;11564;50.920;11.612;2022-08-19T13:35:36;23.30;99.90
22795;DHT22;11564;50.920;11.612;2022-08-19T13:38:02;23.00;99.90
22795;DHT22;11564;50.920;11.612;2022-08-19T13:40:30;23.00;99.90
22795;DHT22;11564;50.920;11.612;2022-08-19T13:43:00;23.00;99.90
22795;DHT22;11564;50.920;11.612;2022-08-19T13:45:27;23.10;99.90
22795;DHT22;11564;50.920;11.612;2022-08-19T13:47:55;22.90;99.90
22795;DHT22;11564;50.920;11.612;2022-08-19T13:50:27;23.00;99.90
22795;DHT22;11564;50.920;11.612;2022-08-19T13:52:54;22.80;99.90
22795;DHT22;11564;50.920;11.612;2022-08-19T13:55:21;22.50;99.90
22795;DHT22;11564;50.920;11.612;2022-08-19T13:57:50;22.60;99.90
22795;DHT22;11564;50.920;11.612;2022-08-19T14:00:18;22.70;99.90
22795;DHT22;11564;50.920;11.612;2022-08-19T14:02:45;22.60;99.90
22795;DHT22;11564;50.920;11.612;2022-08-19T14:05:13;22.60;99.90
22795;DHT22;11564;50.920;11.612;2022-08-19T14:07:39;22.60;99.90
22795;DHT22;11564;50.920;11.612;2022-08-19T14:10:07;22.70;99.90
22795;DHT22;11564;50.920;11.612;2022-08-19T14:12:34;22.70;99.90
22795;DHT22;11564;50.920;11.612;2022-08-19T14:15:00;22.70;99.90
22795;DHT22;11564;50.920;11.612;2022-08-19T14:17:25;22.60;99.90
22795;DHT22;11564;50.920;11.612;2022-08-19T14:20:03;22.30;99.90
22795;DHT22;11564;50.920;11.612;2022-08-19T14:22:30;22.50;99.90
22795;DHT22;11564;50.920;11.612;2022-08-19T14:24:57;22.60;99.90
22795;DHT22;11564;50.920;11.612;2022-08-19T14:27:23;22.70;99.90
22795;DHT22;11564;50.920;11.612;2022-08-19T14:29:49;22.50;99.90
22795;DHT22;11564;50.920;11.612;2022-08-19T14:32:15;22.40;99.90
22795;DHT22;11564;50.920;11.612;2022-08-19T14:34:41;22.30;99.90
22795;DHT22;11564;50.920;11.612;2022-08-19T14:37:06;22.30;99.90
22795;DHT22;11564;50.920;11.612;2022-08-19T14:39:33;22.40;99.90
22795;DHT22;11564;50.920;11.612;2022-08-19T14:41:58;22.40;99.90
22795;DHT22;11564;50.920;11.612;2022-08-19T14:44:24;22.40;99.90
22795;DHT22;11564;50.920;11.612;2022-08-19T14:46:51;22.60;99.90
22795;DHT22;11564;50.920;11.612;2022-08-19T14:49:17;22.80;99.90
22795;DHT22;11564;50.920;11.612;2022-08-19T14:51:43;22.90;99.90
22795;DHT22;11564;50.920;11.612;2022-08-19T14:54:10;22.90;99.90
22795;DHT22;11564;50.920;11.612;2022-08-19T14:56:37;23.10;99.90
22795;DHT22;11564;50.920;11.612;2022-08-19T14:59:05;23.20;99.90
22795;DHT22;11564;50.920;11.612;2022-08-19T15:01:31;23.10;99.90
22795;DHT22;11564;50.920;11.612;2022-08-19T15:03:57;23.20;99.90
22795;DHT22;11564;50.920;11.612;2022-08-19T15:06:23;23.10;99.90
22795;DHT22;11564;50.920;11.612;2022-08-19T15:08:49;23.00;99.90
22795;DHT22;11564;50.920;11.612;2022-08-19T15:11:18;22.90;99.90
22795;DHT22;11564;50.920;11.612;2022-08-19T15:13:46;22.80;99.90
22795;DHT22;11564;50.920;11.612;2022-08-19T15:16:13;22.80;99.90
22795;DHT22;11564;50.920;11.612;2022-08-19T15:18:40;22.90;99.90
22795;DHT22;11564;50.920;11.612;2022-08-19T15:21:09;22.90;99.90
22795;DHT22;11564;50.920;11.612;2022-08-19T15:23:37;22.90;99.90
22795;DHT22;11564;50.920;11.612;2022-08-19T15:26:03;23.20;99.90
22795;DHT22;11564;50.920;11.612;2022-08-19T15:28:30;23.20;99.90